sensor_id;sensor_type;location;lat;lon;timestamp;P1;durP1;ratioP1;P2;durP2;ratioP2
77466;SDS011;66564;42.482;25.548;2023-02-01T00:00:31;3.72;;;2.20;;
77466;SDS011;66564;42.482;25.548;2023-02-01T00:02:58;2.25;;;1.65;;
77466;SDS011;66564;42.482;25.548;2023-02-01T00:05:23;7.20;;;2.13;;
77466;SDS011;66564;42.482;25.548;2023-02-01T00:07:49;4.57;;;2.20;;
77466;SDS011;66564;42.482;25.548;2023-02-01T00:10:15;3.55;;;2.10;;
77466;SDS011;66564;42.482;25.548;2023-02-01T00:12:41;5.97;;;2.33;;
77466;SDS011;66564;42.482;25.548;2023-02-01T00:15:07;4.45;;;2.95;;
77466;SDS011;66564;42.482;25.548;2023-02-01T00:17:32;6.15;;;3.25;;
77466;SDS011;66564;42.482;25.548;2023-02-01T00:19:58;3.50;;;2.60;;
77466;SDS011;66564;42.482;25.548;2023-02-01T00:22:24;3.05;;;2.45;;
77466;SDS011;66564;42.482;25.548;2023-02-01T00:24:49;4.72;;;2.92;;
77466;SDS011;66564;42.482;25.548;2023-02-01T00:27:16;3.83;;;2.47;;
77466;SDS011;66564;42.482;25.548;2023-02-01T00:29:45;5.15;;;2.88;;
77466;SDS011;66564;42.482;25.548;2023-02-01T00:32:12;6.18;;;3.20;;
77466;SDS011;66564;42.482;25.548;2023-02-01T00:34:38;4.47;;;3.15;;
77466;SDS011;66564;42.482;25.548;2023-02-01T00:37:03;3.58;;;2.58;;
77466;SDS011;66564;42.482;25.548;2023-02-01T00:39:29;4.00;;;2.75;;
77466;SDS011;66564;42.482;25.548;2023-02-01T00:41:54;4.35;;;2.97;;
77466;SDS011;66564;42.482;25.548;2023-02-01T00:44:20;4.63;;;2.88;;
77466;SDS011;66564;42.482;25.548;2023-02-01T00:46:45;3.95;;;2.60;;
77466;SDS011;66564;42.482;25.548;2023-02-01T00:49:11;4.43;;;2.90;;
77466;SDS011;66564;42.482;25.548;2023-02-01T00:51:36;4.25;;;2.75;;
77466;SDS011;66564;42.482;25.548;2023-02-01T00:54:02;4.18;;;2.95;;
77466;SDS011;66564;42.482;25.548;2023-02-01T00:56:28;6.00;;;3.33;;
77466;SDS011;66564;42.482;25.548;2023-02-01T00:58:55;3.90;;;2.90;;
77466;SDS011;66564;42.482;25.548;2023-02-01T01:01:25;4.13;;;2.63;;
77466;SDS011;66564;42.482;25.548;2023-02-01T01:03:55;5.22;;;2.90;;
77466;SDS011;66564;42.482;25.548;2023-02-01T01:06:24;3.67;;;2.92;;
77466;SDS011;66564;42.482;25.548;2023-02-01T01:08:52;3.83;;;2.45;;
77466;SDS011;66564;42.482;25.548;2023-02-01T01:11:26;5.55;;;2.72;;
77466;SDS011;66564;42.482;25.548;2023-02-01T01:13:54;3.88;;;2.58;;
77466;SDS011;66564;42.482;25.548;2023-02-01T01:16:21;4.80;;;3.25;;
77466;SDS011;66564;42.482;25.548;2023-02-01T01:18:47;4.72;;;2.72;;
77466;SDS011;66564;42.482;25.548;2023-02-01T01:21:13;4.32;;;2.55;;
77466;SDS011;66564;42.482;25.548;2023-02-01T01:23:40;3.65;;;2.63;;
77466;SDS011;66564;42.482;25.548;2023-02-01T01:26:07;3.63;;;2.47;;
77466;SDS011;66564;42.482;25.548;2023-02-01T01:28:34;4.20;;;2.72;;
77466;SDS011;66564;42.482;25.548;2023-02-01T01:31:00;7.20;;;2.58;;
77466;SDS011;66564;42.482;25.548;2023-02-01T01:33:25;5.00;;;2.75;;
77466;SDS011;66564;42.482;25.548;2023-02-01T01:35:53;5.32;;;2.80;;
77466;SDS011;66564;42.482;25.548;2023-02-01T01:38:19;6.88;;;3.30;;
77466;SDS011;66564;42.482;25.548;2023-02-01T01:40:47;4.03;;;2.70;;
77466;SDS011;66564;42.482;25.548;2023-02-01T01:43:15;3.33;;;2.65;;
77466;SDS011;66564;42.482;25.548;2023-02-01T01:45:47;6.10;;;2.80;;
77466;SDS011;66564;42.482;25.548;2023-02-01T01:48:23;6.20;;;2.30;;
77466;SDS011;66564;42.482;25.548;2023-02-01T01:50:55;4.60;;;2.72;;
77466;SDS011;66564;42.482;25.548;2023-02-01T01:53:26;3.85;;;2.78;;
77466;SDS011;66564;42.482;25.548;2023-02-01T01:55:56;3.78;;;2.85;;
77466;SDS011;66564;42.482;25.548;2023-02-01T01:58:24;6.28;;;3.22;;
77466;SDS011;66564;42.482;25.548;2023-02-01T02:00:51;4.15;;;2.83;;
77466;SDS011;66564;42.482;25.548;2023-02-01T02:03:25;4.45;;;3.00;;
77466;SDS011;66564;42.482;25.548;2023-02-01T02:05:57;4.13;;;3.10;;
77466;SDS011;66564;42.482;25.548;2023-02-01T02:08:24;5.95;;;2.95;;
77466;SDS011;66564;42.482;25.548;2023-02-01T02:10:51;4.38;;;3.17;;
77466;SDS011;66564;42.482;25.548;2023-02-01T02:13:34;6.93;;;3.05;;
77466;SDS011;66564;42.482;25.548;2023-02-01T02:32:03;6.97;;;2.90;;
77466;SDS011;66564;42.482;25.548;2023-02-01T02:37:46;2.90;;;2.50;;
77466;SDS011;66564;42.482;25.548;2023-02-01T02:40:42;4.18;;;2.42;;
77466;SDS011;66564;42.482;25.548;2023-02-01T02:43:22;5.55;;;2.90;;
77466;SDS011;66564;42.482;25.548;2023-02-01T02:52:06;4.88;;;2.55;;
77466;SDS011;66564;42.482;25.548;2023-02-01T02:54:56;3.42;;;2.53;;
77466;SDS011;66564;42.482;25.548;2023-02-01T02:57:28;3.22;;;2.35;;
77466;SDS011;66564;42.482;25.548;2023-02-01T03:00:18;2.90;;;2.40;;
77466;SDS011;66564;42.482;25.548;2023-02-01T03:03:05;5.65;;;2.40;;
77466;SDS011;66564;42.482;25.548;2023-02-01T03:05:50;4.80;;;2.55;;
77466;SDS011;66564;42.482;25.548;2023-02-01T03:08:19;4.90;;;2.58;;
77466;SDS011;66564;42.482;25.548;2023-02-01T03:15:57;4.40;;;2.35;;
77466;SDS011;66564;42.482;25.548;2023-02-01T03:21:10;4.15;;;2.70;;
77466;SDS011;66564;42.482;25.548;2023-02-01T03:23:49;6.60;;;2.95;;
77466;SDS011;66564;42.482;25.548;2023-02-01T03:26:18;5.53;;;2.42;;
77466;SDS011;66564;42.482;25.548;2023-02-01T03:28:48;5.55;;;2.65;;
77466;SDS011;66564;42.482;25.548;2023-02-01T03:31:21;3.10;;;2.53;;
77466;SDS011;66564;42.482;25.548;2023-02-01T03:33:50;2.72;;;2.00;;
77466;SDS011;66564;42.482;25.548;2023-02-01T03:36:35;3.97;;;2.92;;
77466;SDS011;66564;42.482;25.548;2023-02-01T03:39:30;4.05;;;2.38;;
77466;SDS011;66564;42.482;25.548;2023-02-01T03:42:10;4.65;;;2.35;;
77466;SDS011;66564;42.482;25.548;2023-02-01T03:44:48;4.22;;;2.35;;
77466;SDS011;66564;42.482;25.548;2023-02-01T03:47:23;2.63;;;1.98;;
77466;SDS011;66564;42.482;25.548;2023-02-01T03:49:55;6.13;;;2.60;;
77466;SDS011;66564;42.482;25.548;2023-02-01T03:52:28;2.88;;;2.22;;
77466;SDS011;66564;42.482;25.548;2023-02-01T03:54:57;5.95;;;2.47;;
77466;SDS011;66564;42.482;25.548;2023-02-01T03:57:29;4.20;;;2.63;;
77466;SDS011;66564;42.482;25.548;2023-02-01T04:00:09;5.43;;;2.40;;
77466;SDS011;66564;42.482;25.548;2023-02-01T04:02:41;3.40;;;2.28;;
77466;SDS011;66564;42.482;25.548;2023-02-01T04:05:07;4.57;;;2.35;;
77466;SDS011;66564;42.482;25.548;2023-02-01T04:07:33;2.28;;;1.85;;
77466;SDS011;66564;42.482;25.548;2023-02-01T04:09:58;3.38;;;2.20;;
77466;SDS011;66564;42.482;25.548;2023-02-01T04:12:24;4.18;;;2.03;;
77466;SDS011;66564;42.482;25.548;2023-02-01T04:14:49;2.72;;;1.92;;
77466;SDS011;66564;42.482;25.548;2023-02-01T04:17:15;2.50;;;1.73;;
77466;SDS011;66564;42.482;25.548;2023-02-01T04:19:40;3.85;;;2.28;;
77466;SDS011;66564;42.482;25.548;2023-02-01T04:22:06;4.47;;;2.00;;
77466;SDS011;66564;42.482;25.548;2023-02-01T04:24:31;6.95;;;2.10;;
77466;SDS011;66564;42.482;25.548;2023-02-01T04:26:57;4.25;;;1.88;;
77466;SDS011;66564;42.482;25.548;2023-02-01T04:29:22;1.88;;;1.60;;
77466;SDS011;66564;42.482;25.548;2023-02-01T04:31:48;3.03;;;1.90;;
77466;SDS011;66564;42.482;25.548;2023-02-01T04:34:14;2.55;;;1.80;;
77466;SDS011;66564;42.482;25.548;2023-02-01T04:36:40;3.70;;;1.65;;
77466;SDS011;66564;42.482;25.548;2023-02-01T04:39:05;5.32;;;1.75;;
77466;SDS011;66564;42.482;25.548;2023-02-01T04:41:31;3.00;;;1.60;;
77466;SDS011;66564;42.482;25.548;2023-02-01T04:43:57;3.50;;;1.95;;
77466;SDS011;66564;42.482;25.548;2023-02-01T04:46:22;3.85;;;1.92;;
77466;SDS011;66564;42.482;25.548;2023-02-01T04:48:48;3.05;;;1.92;;
77466;SDS011;66564;42.482;25.548;2023-02-01T04:51:13;3.88;;;2.13;;
77466;SDS011;66564;42.482;25.548;2023-02-01T04:53:40;5.63;;;1.90;;
77466;SDS011;66564;42.482;25.548;2023-02-01T04:56:05;2.88;;;2.10;;
77466;SDS011;66564;42.482;25.548;2023-02-01T04:58:31;3.67;;;2.20;;
77466;SDS011;66564;42.482;25.548;2023-02-01T05:00:57;3.05;;;1.90;;
77466;SDS011;66564;42.482;25.548;2023-02-01T05:03:23;3.55;;;1.70;;
77466;SDS011;66564;42.482;25.548;2023-02-01T05:05:48;4.72;;;2.00;;
77466;SDS011;66564;42.482;25.548;2023-02-01T05:08:14;3.28;;;2.28;;
77466;SDS011;66564;42.482;25.548;2023-02-01T05:10:40;3.95;;;2.10;;
77466;SDS011;66564;42.482;25.548;2023-02-01T05:13:05;4.43;;;2.63;;
77466;SDS011;66564;42.482;25.548;2023-02-01T05:15:50;2.80;;;2.10;;
77466;SDS011;66564;42.482;25.548;2023-02-01T05:18:16;9.15;;;3.95;;
77466;SDS011;66564;42.482;25.548;2023-02-01T05:20:41;6.82;;;3.47;;
77466;SDS011;66564;42.482;25.548;2023-02-01T05:23:07;3.65;;;2.35;;
77466;SDS011;66564;42.482;25.548;2023-02-01T05:25:32;4.47;;;2.65;;
77466;SDS011;66564;42.482;25.548;2023-02-01T05:27:58;2.90;;;2.05;;
77466;SDS011;66564;42.482;25.548;2023-02-01T05:30:23;3.08;;;2.03;;
77466;SDS011;66564;42.482;25.548;2023-02-01T05:32:49;3.85;;;2.53;;
77466;SDS011;66564;42.482;25.548;2023-02-01T05:35:16;4.70;;;2.60;;
77466;SDS011;66564;42.482;25.548;2023-02-01T05:37:41;5.30;;;2.42;;
77466;SDS011;66564;42.482;25.548;2023-02-01T05:40:07;5.45;;;2.25;;
77466;SDS011;66564;42.482;25.548;2023-02-01T05:42:33;5.28;;;2.85;;
77466;SDS011;66564;42.482;25.548;2023-02-01T05:44:58;9.38;;;2.80;;
77466;SDS011;66564;42.482;25.548;2023-02-01T05:47:24;3.38;;;2.40;;
77466;SDS011;66564;42.482;25.548;2023-02-01T05:49:49;4.03;;;2.47;;
77466;SDS011;66564;42.482;25.548;2023-02-01T05:52:15;6.55;;;3.20;;
77466;SDS011;66564;42.482;25.548;2023-02-01T05:54:44;3.47;;;2.28;;
77466;SDS011;66564;42.482;25.548;2023-02-01T05:57:11;4.85;;;2.72;;
77466;SDS011;66564;42.482;25.548;2023-02-01T05:59:38;5.22;;;2.35;;
77466;SDS011;66564;42.482;25.548;2023-02-01T06:02:06;10.77;;;5.38;;
77466;SDS011;66564;42.482;25.548;2023-02-01T06:04:33;6.25;;;3.83;;
77466;SDS011;66564;42.482;25.548;2023-02-01T06:06:59;5.50;;;2.63;;
77466;SDS011;66564;42.482;25.548;2023-02-01T06:10:24;5.82;;;2.47;;
77466;SDS011;66564;42.482;25.548;2023-02-01T06:13:49;5.65;;;2.22;;
77466;SDS011;66564;42.482;25.548;2023-02-01T06:17:15;3.75;;;2.47;;
77466;SDS011;66564;42.482;25.548;2023-02-01T06:20:40;4.18;;;1.98;;
77466;SDS011;66564;42.482;25.548;2023-02-01T06:24:05;5.28;;;2.28;;
77466;SDS011;66564;42.482;25.548;2023-02-01T06:27:31;3.67;;;2.20;;
77466;SDS011;66564;42.482;25.548;2023-02-01T06:30:56;4.72;;;2.15;;
77466;SDS011;66564;42.482;25.548;2023-02-01T06:34:27;3.22;;;2.40;;
77466;SDS011;66564;42.482;25.548;2023-02-01T06:37:55;5.93;;;2.47;;
77466;SDS011;66564;42.482;25.548;2023-02-01T06:41:20;4.45;;;2.35;;
77466;SDS011;66564;42.482;25.548;2023-02-01T06:44:48;4.60;;;2.38;;
77466;SDS011;66564;42.482;25.548;2023-02-01T06:48:11;5.40;;;2.83;;
77466;SDS011;66564;42.482;25.548;2023-02-01T06:51:36;4.55;;;2.42;;
77466;SDS011;66564;42.482;25.548;2023-02-01T06:55:01;5.50;;;2.60;;
77466;SDS011;66564;42.482;25.548;2023-02-01T06:58:30;5.20;;;2.63;;
77466;SDS011;66564;42.482;25.548;2023-02-01T07:01:57;7.78;;;2.70;;
77466;SDS011;66564;42.482;25.548;2023-02-01T07:08:51;6.60;;;2.58;;
77466;SDS011;66564;42.482;25.548;2023-02-01T07:11:18;4.82;;;2.72;;
77466;SDS011;66564;42.482;25.548;2023-02-01T07:14:42;4.70;;;2.90;;
77466;SDS011;66564;42.482;25.548;2023-02-01T07:18:07;4.47;;;2.60;;
77466;SDS011;66564;42.482;25.548;2023-02-01T07:21:32;3.67;;;2.65;;
77466;SDS011;66564;42.482;25.548;2023-02-01T07:24:58;4.35;;;2.70;;
77466;SDS011;66564;42.482;25.548;2023-02-01T07:28:23;5.47;;;2.75;;
77466;SDS011;66564;42.482;25.548;2023-02-01T07:31:48;4.95;;;2.65;;
77466;SDS011;66564;42.482;25.548;2023-02-01T07:35:13;4.75;;;2.17;;
77466;SDS011;66564;42.482;25.548;2023-02-01T07:38:39;4.07;;;2.28;;
77466;SDS011;66564;42.482;25.548;2023-02-01T07:42:04;3.70;;;2.30;;
77466;SDS011;66564;42.482;25.548;2023-02-01T07:45:29;3.25;;;2.15;;
77466;SDS011;66564;42.482;25.548;2023-02-01T07:48:55;4.55;;;2.08;;
77466;SDS011;66564;42.482;25.548;2023-02-01T07:52:21;3.50;;;2.00;;
77466;SDS011;66564;42.482;25.548;2023-02-01T07:54:47;3.72;;;2.55;;
77466;SDS011;66564;42.482;25.548;2023-02-01T07:58:15;3.83;;;1.88;;
77466;SDS011;66564;42.482;25.548;2023-02-01T08:01:22;3.50;;;1.73;;
77466;SDS011;66564;42.482;25.548;2023-02-01T08:04:45;5.72;;;1.65;;
77466;SDS011;66564;42.482;25.548;2023-02-01T08:08:10;2.17;;;1.75;;
77466;SDS011;66564;42.482;25.548;2023-02-01T08:10:36;2.85;;;1.92;;
77466;SDS011;66564;42.482;25.548;2023-02-01T08:13:02;2.83;;;1.80;;
77466;SDS011;66564;42.482;25.548;2023-02-01T08:15:31;3.33;;;1.88;;
77466;SDS011;66564;42.482;25.548;2023-02-01T08:17:56;2.53;;;1.83;;
77466;SDS011;66564;42.482;25.548;2023-02-01T08:20:23;4.00;;;2.20;;
77466;SDS011;66564;42.482;25.548;2023-02-01T08:22:51;5.00;;;1.77;;
77466;SDS011;66564;42.482;25.548;2023-02-01T08:25:17;2.60;;;1.77;;
77466;SDS011;66564;42.482;25.548;2023-02-01T08:27:43;4.20;;;1.90;;
77466;SDS011;66564;42.482;25.548;2023-02-01T08:30:10;2.75;;;1.73;;
77466;SDS011;66564;42.482;25.548;2023-02-01T08:32:35;3.67;;;1.85;;
77466;SDS011;66564;42.482;25.548;2023-02-01T08:35:02;4.47;;;2.00;;
77466;SDS011;66564;42.482;25.548;2023-02-01T08:37:28;3.38;;;1.85;;
77466;SDS011;66564;42.482;25.548;2023-02-01T08:39:53;5.00;;;1.90;;
77466;SDS011;66564;42.482;25.548;2023-02-01T08:42:19;4.40;;;2.00;;
77466;SDS011;66564;42.482;25.548;2023-02-01T08:45:03;4.32;;;1.88;;
77466;SDS011;66564;42.482;25.548;2023-02-01T08:47:30;3.28;;;1.30;;
77466;SDS011;66564;42.482;25.548;2023-02-01T08:49:56;4.28;;;2.08;;
77466;SDS011;66564;42.482;25.548;2023-02-01T08:52:21;2.47;;;1.75;;
77466;SDS011;66564;42.482;25.548;2023-02-01T08:54:47;3.55;;;1.67;;
77466;SDS011;66564;42.482;25.548;2023-02-01T08:57:13;3.60;;;2.13;;
77466;SDS011;66564;42.482;25.548;2023-02-01T08:59:38;4.90;;;2.10;;
77466;SDS011;66564;42.482;25.548;2023-02-01T09:02:04;4.43;;;2.20;;
77466;SDS011;66564;42.482;25.548;2023-02-01T09:04:29;4.88;;;2.15;;
77466;SDS011;66564;42.482;25.548;2023-02-01T09:06:55;2.78;;;1.80;;
77466;SDS011;66564;42.482;25.548;2023-02-01T09:09:23;3.08;;;2.03;;
77466;SDS011;66564;42.482;25.548;2023-02-01T09:11:49;4.72;;;2.42;;
77466;SDS011;66564;42.482;25.548;2023-02-01T09:14:15;3.35;;;2.30;;
77466;SDS011;66564;42.482;25.548;2023-02-01T09:16:41;4.97;;;1.95;;
77466;SDS011;66564;42.482;25.548;2023-02-01T09:19:10;2.97;;;2.10;;
77466;SDS011;66564;42.482;25.548;2023-02-01T09:22:35;6.55;;;1.95;;
77466;SDS011;66564;42.482;25.548;2023-02-01T09:26:01;4.30;;;2.15;;
77466;SDS011;66564;42.482;25.548;2023-02-01T09:29:26;3.35;;;2.35;;
77466;SDS011;66564;42.482;25.548;2023-02-01T09:31:51;3.88;;;2.17;;
77466;SDS011;66564;42.482;25.548;2023-02-01T09:34:19;2.45;;;1.80;;
77466;SDS011;66564;42.482;25.548;2023-02-01T09:36:46;4.57;;;2.50;;
77466;SDS011;66564;42.482;25.548;2023-02-01T09:39:13;4.13;;;2.70;;
77466;SDS011;66564;42.482;25.548;2023-02-01T09:41:57;4.30;;;2.30;;
77466;SDS011;66564;42.482;25.548;2023-02-01T09:46:53;5.50;;;2.60;;
77466;SDS011;66564;42.482;25.548;2023-02-01T09:49:30;4.25;;;2.40;;
77466;SDS011;66564;42.482;25.548;2023-02-01T09:52:07;3.88;;;2.58;;
77466;SDS011;66564;42.482;25.548;2023-02-01T10:00:26;5.32;;;2.53;;
77466;SDS011;66564;42.482;25.548;2023-02-01T10:02:55;4.03;;;2.85;;
77466;SDS011;66564;42.482;25.548;2023-02-01T10:05:34;4.40;;;2.53;;
77466;SDS011;66564;42.482;25.548;2023-02-01T10:08:38;4.57;;;2.85;;
77466;SDS011;66564;42.482;25.548;2023-02-01T10:25:31;3.63;;;2.70;;
77466;SDS011;66564;42.482;25.548;2023-02-01T10:28:02;3.60;;;3.03;;
77466;SDS011;66564;42.482;25.548;2023-02-01T10:30:40;7.03;;;3.03;;
77466;SDS011;66564;42.482;25.548;2023-02-01T10:33:25;5.90;;;3.28;;
77466;SDS011;66564;42.482;25.548;2023-02-01T10:36:57;7.18;;;3.67;;
77466;SDS011;66564;42.482;25.548;2023-02-01T10:40:24;5.03;;;3.30;;
77466;SDS011;66564;42.482;25.548;2023-02-01T10:42:51;5.88;;;3.63;;
77466;SDS011;66564;42.482;25.548;2023-02-01T10:46:16;5.50;;;3.20;;
77466;SDS011;66564;42.482;25.548;2023-02-01T10:53:03;5.55;;;3.70;;
77466;SDS011;66564;42.482;25.548;2023-02-01T10:56:27;5.63;;;3.20;;
77466;SDS011;66564;42.482;25.548;2023-02-01T10:59:52;6.93;;;3.42;;
77466;SDS011;66564;42.482;25.548;2023-02-01T11:04:00;4.88;;;3.42;;
77466;SDS011;66564;42.482;25.548;2023-02-01T11:07:12;4.85;;;3.13;;
77466;SDS011;66564;42.482;25.548;2023-02-01T11:10:39;5.80;;;3.10;;
77466;SDS011;66564;42.482;25.548;2023-02-01T11:14:20;6.32;;;3.92;;
77466;SDS011;66564;42.482;25.548;2023-02-01T11:17:35;4.90;;;3.30;;
77466;SDS011;66564;42.482;25.548;2023-02-01T11:21:00;5.68;;;3.42;;
77466;SDS011;66564;42.482;25.548;2023-02-01T11:23:29;5.13;;;3.60;;
77466;SDS011;66564;42.482;25.548;2023-02-01T11:26:40;7.00;;;3.80;;
77466;SDS011;66564;42.482;25.548;2023-02-01T11:28:52;5.53;;;3.05;;
77466;SDS011;66564;42.482;25.548;2023-02-01T11:31:38;4.90;;;3.25;;
77466;SDS011;66564;42.482;25.548;2023-02-01T11:34:08;8.55;;;4.38;;
77466;SDS011;66564;42.482;25.548;2023-02-01T11:36:45;5.28;;;3.55;;
77466;SDS011;66564;42.482;25.548;2023-02-01T11:44:34;5.63;;;3.95;;
77466;SDS011;66564;42.482;25.548;2023-02-01T11:47:24;4.25;;;3.25;;
77466;SDS011;66564;42.482;25.548;2023-02-01T11:49:52;4.25;;;2.85;;
77466;SDS011;66564;42.482;25.548;2023-02-01T11:58:12;4.80;;;3.45;;
77466;SDS011;66564;42.482;25.548;2023-02-01T12:01:29;5.78;;;3.30;;
77466;SDS011;66564;42.482;25.548;2023-02-01T12:16:40;3.50;;;2.55;;
77466;SDS011;66564;42.482;25.548;2023-02-01T12:45:30;4.95;;;3.03;;
77466;SDS011;66564;42.482;25.548;2023-02-01T12:48:39;3.63;;;2.30;;
77466;SDS011;66564;42.482;25.548;2023-02-01T13:07:50;3.75;;;1.98;;
77466;SDS011;66564;42.482;25.548;2023-02-01T13:17:51;3.42;;;2.30;;
77466;SDS011;66564;42.482;25.548;2023-02-01T13:21:12;3.95;;;1.95;;
77466;SDS011;66564;42.482;25.548;2023-02-01T13:24:36;2.40;;;1.85;;
77466;SDS011;66564;42.482;25.548;2023-02-01T13:28:11;2.80;;;2.00;;
77466;SDS011;66564;42.482;25.548;2023-02-01T13:46:47;3.35;;;2.20;;
77466;SDS011;66564;42.482;25.548;2023-02-01T13:49:53;4.93;;;2.22;;
77466;SDS011;66564;42.482;25.548;2023-02-01T13:53:29;2.40;;;1.85;;
77466;SDS011;66564;42.482;25.548;2023-02-01T13:56:52;3.30;;;2.38;;
77466;SDS011;66564;42.482;25.548;2023-02-01T14:03:43;3.08;;;1.85;;
77466;SDS011;66564;42.482;25.548;2023-02-01T14:07:15;4.68;;;2.60;;
77466;SDS011;66564;42.482;25.548;2023-02-01T14:16:42;3.50;;;2.78;;
77466;SDS011;66564;42.482;25.548;2023-02-01T14:19:18;5.07;;;2.50;;
77466;SDS011;66564;42.482;25.548;2023-02-01T14:21:51;3.72;;;2.30;;
77466;SDS011;66564;42.482;25.548;2023-02-01T14:24:30;4.70;;;2.38;;
77466;SDS011;66564;42.482;25.548;2023-02-01T14:26:58;7.18;;;2.38;;
77466;SDS011;66564;42.482;25.548;2023-02-01T14:34:53;3.40;;;2.20;;
77466;SDS011;66564;42.482;25.548;2023-02-01T14:38:24;5.50;;;2.03;;
77466;SDS011;66564;42.482;25.548;2023-02-01T14:41:51;3.50;;;2.08;;
77466;SDS011;66564;42.482;25.548;2023-02-01T14:50:57;4.65;;;2.33;;
77466;SDS011;66564;42.482;25.548;2023-02-01T14:54:22;4.88;;;2.00;;
77466;SDS011;66564;42.482;25.548;2023-02-01T14:57:48;4.50;;;2.25;;
77466;SDS011;66564;42.482;25.548;2023-02-01T15:01:23;2.20;;;1.80;;
77466;SDS011;66564;42.482;25.548;2023-02-01T15:04:59;2.97;;;2.03;;
77466;SDS011;66564;42.482;25.548;2023-02-01T15:08:33;6.25;;;1.85;;
77466;SDS011;66564;42.482;25.548;2023-02-01T15:11:59;3.08;;;1.80;;
77466;SDS011;66564;42.482;25.548;2023-02-01T15:15:24;2.70;;;1.90;;
77466;SDS011;66564;42.482;25.548;2023-02-01T15:18:48;3.58;;;1.83;;
77466;SDS011;66564;42.482;25.548;2023-02-01T15:22:17;2.58;;;1.77;;
77466;SDS011;66564;42.482;25.548;2023-02-01T15:24:43;3.08;;;1.80;;
77466;SDS011;66564;42.482;25.548;2023-02-01T15:27:16;2.65;;;1.65;;
77466;SDS011;66564;42.482;25.548;2023-02-01T15:30:25;3.92;;;1.92;;
77466;SDS011;66564;42.482;25.548;2023-02-01T15:33:06;2.45;;;1.95;;
77466;SDS011;66564;42.482;25.548;2023-02-01T15:40:58;4.03;;;2.03;;
77466;SDS011;66564;42.482;25.548;2023-02-01T15:43:24;3.50;;;2.00;;
77466;SDS011;66564;42.482;25.548;2023-02-01T15:45:51;3.28;;;2.25;;
77466;SDS011;66564;42.482;25.548;2023-02-01T15:48:22;3.78;;;2.10;;
77466;SDS011;66564;42.482;25.548;2023-02-01T15:50:50;3.83;;;2.38;;
77466;SDS011;66564;42.482;25.548;2023-02-01T15:54:31;3.25;;;1.90;;
77466;SDS011;66564;42.482;25.548;2023-02-01T15:57:55;3.13;;;2.10;;
77466;SDS011;66564;42.482;25.548;2023-02-01T16:00:25;2.45;;;1.80;;
77466;SDS011;66564;42.482;25.548;2023-02-01T16:02:54;2.88;;;2.00;;
77466;SDS011;66564;42.482;25.548;2023-02-01T16:05:39;4.13;;;2.03;;
77466;SDS011;66564;42.482;25.548;2023-02-01T16:10:43;2.65;;;1.95;;
77466;SDS011;66564;42.482;25.548;2023-02-01T16:13:10;2.50;;;1.67;;
77466;SDS011;66564;42.482;25.548;2023-02-01T16:15:36;4.53;;;2.00;;
77466;SDS011;66564;42.482;25.548;2023-02-01T16:18:02;3.55;;;2.03;;
77466;SDS011;66564;42.482;25.548;2023-02-01T16:21:27;2.90;;;1.90;;
77466;SDS011;66564;42.482;25.548;2023-02-01T16:24:52;2.33;;;1.73;;
77466;SDS011;66564;42.482;25.548;2023-02-01T16:27:18;4.00;;;1.77;;
77466;SDS011;66564;42.482;25.548;2023-02-01T16:29:46;2.55;;;1.85;;
77466;SDS011;66564;42.482;25.548;2023-02-01T16:32:20;3.75;;;2.10;;
77466;SDS011;66564;42.482;25.548;2023-02-01T16:34:46;4.63;;;1.90;;
77466;SDS011;66564;42.482;25.548;2023-02-01T16:37:13;3.13;;;1.92;;
77466;SDS011;66564;42.482;25.548;2023-02-01T16:39:41;3.38;;;2.10;;
77466;SDS011;66564;42.482;25.548;2023-02-01T16:42:14;5.65;;;1.98;;
77466;SDS011;66564;42.482;25.548;2023-02-01T16:44:40;3.08;;;1.95;;
77466;SDS011;66564;42.482;25.548;2023-02-01T16:47:15;7.15;;;1.95;;
77466;SDS011;66564;42.482;25.548;2023-02-01T16:49:43;2.85;;;1.77;;
77466;SDS011;66564;42.482;25.548;2023-02-01T16:52:16;2.45;;;1.67;;
77466;SDS011;66564;42.482;25.548;2023-02-01T16:54:50;2.28;;;1.60;;
77466;SDS011;66564;42.482;25.548;2023-02-01T16:57:16;2.85;;;1.92;;
77466;SDS011;66564;42.482;25.548;2023-02-01T16:59:43;3.10;;;1.73;;
77466;SDS011;66564;42.482;25.548;2023-02-01T17:02:13;2.47;;;1.98;;
77466;SDS011;66564;42.482;25.548;2023-02-01T17:04:40;3.97;;;1.90;;
77466;SDS011;66564;42.482;25.548;2023-02-01T17:07:22;3.15;;;1.77;;
77466;SDS011;66564;42.482;25.548;2023-02-01T17:09:48;2.30;;;1.70;;
77466;SDS011;66564;42.482;25.548;2023-02-01T17:12:24;2.30;;;1.60;;
77466;SDS011;66564;42.482;25.548;2023-02-01T17:14:51;3.10;;;1.90;;
77466;SDS011;66564;42.482;25.548;2023-02-01T17:17:17;3.22;;;1.77;;
77466;SDS011;66564;42.482;25.548;2023-02-01T17:19:51;2.30;;;1.75;;
77466;SDS011;66564;42.482;25.548;2023-02-01T17:22:21;2.75;;;1.75;;
77466;SDS011;66564;42.482;25.548;2023-02-01T17:24:47;5.25;;;1.75;;
77466;SDS011;66564;42.482;25.548;2023-02-01T17:28:13;7.30;;;1.83;;
77466;SDS011;66564;42.482;25.548;2023-02-01T17:31:39;1.98;;;1.60;;
77466;SDS011;66564;42.482;25.548;2023-02-01T17:35:03;2.70;;;1.70;;
77466;SDS011;66564;42.482;25.548;2023-02-01T17:37:31;2.10;;;1.45;;
77466;SDS011;66564;42.482;25.548;2023-02-01T17:39:58;2.38;;;1.63;;
77466;SDS011;66564;42.482;25.548;2023-02-01T17:42:26;2.28;;;1.70;;
77466;SDS011;66564;42.482;25.548;2023-02-01T17:45:36;1.90;;;1.42;;
77466;SDS011;66564;42.482;25.548;2023-02-01T17:48:03;1.98;;;1.15;;
77466;SDS011;66564;42.482;25.548;2023-02-01T17:50:30;5.68;;;1.98;;
77466;SDS011;66564;42.482;25.548;2023-02-01T17:52:57;2.40;;;1.50;;
77466;SDS011;66564;42.482;25.548;2023-02-01T17:55:23;3.22;;;1.80;;
77466;SDS011;66564;42.482;25.548;2023-02-01T17:57:50;3.30;;;1.75;;
77466;SDS011;66564;42.482;25.548;2023-02-01T18:00:16;2.08;;;1.60;;
77466;SDS011;66564;42.482;25.548;2023-02-01T18:02:43;2.28;;;1.30;;
77466;SDS011;66564;42.482;25.548;2023-02-01T18:05:17;4.60;;;1.88;;
77466;SDS011;66564;42.482;25.548;2023-02-01T18:07:46;2.67;;;1.70;;
77466;SDS011;66564;42.482;25.548;2023-02-01T18:10:11;4.47;;;2.22;;
77466;SDS011;66564;42.482;25.548;2023-02-01T18:12:37;2.33;;;1.50;;
77466;SDS011;66564;42.482;25.548;2023-02-01T18:15:19;2.08;;;1.50;;
77466;SDS011;66564;42.482;25.548;2023-02-01T18:17:46;2.40;;;1.70;;
77466;SDS011;66564;42.482;25.548;2023-02-01T18:20:16;4.90;;;1.65;;
77466;SDS011;66564;42.482;25.548;2023-02-01T18:22:46;2.47;;;1.60;;
77466;SDS011;66564;42.482;25.548;2023-02-01T18:25:15;2.55;;;1.52;;
77466;SDS011;66564;42.482;25.548;2023-02-01T18:27:44;3.17;;;1.90;;
77466;SDS011;66564;42.482;25.548;2023-02-01T18:30:12;3.75;;;1.70;;
77466;SDS011;66564;42.482;25.548;2023-02-01T18:32:38;2.17;;;1.50;;
77466;SDS011;66564;42.482;25.548;2023-02-01T18:35:15;2.22;;;1.45;;
77466;SDS011;66564;42.482;25.548;2023-02-01T18:38:33;2.72;;;1.20;;
77466;SDS011;66564;42.482;25.548;2023-02-01T18:40:59;2.22;;;1.63;;
77466;SDS011;66564;42.482;25.548;2023-02-01T18:44:24;3.58;;;1.92;;
77466;SDS011;66564;42.482;25.548;2023-02-01T18:46:50;2.28;;;1.50;;
77466;SDS011;66564;42.482;25.548;2023-02-01T18:49:16;2.88;;;1.33;;
77466;SDS011;66564;42.482;25.548;2023-02-01T18:52:41;1.65;;;1.15;;
77466;SDS011;66564;42.482;25.548;2023-02-01T18:55:54;7.05;;;1.65;;
77466;SDS011;66564;42.482;25.548;2023-02-01T18:58:24;1.83;;;1.42;;
77466;SDS011;66564;42.482;25.548;2023-02-01T19:00:53;1.90;;;1.38;;
77466;SDS011;66564;42.482;25.548;2023-02-01T19:03:21;2.00;;;1.60;;
77466;SDS011;66564;42.482;25.548;2023-02-01T19:06:47;1.80;;;1.40;;